createdAt,value
2018-02-22T00:03:40.211Z,27.00
2018-02-22T00:08:41.511Z,26.20
2018-02-22T00:13:42.835Z,25.80
2018-02-22T00:18:44.242Z,20.70
2018-02-22T00:23:45.673Z,24.47
2018-02-22T00:28:47.727Z,19.97
2018-02-22T00:33:49.215Z,18.20
2018-02-22T00:38:50.542Z,20.73
2018-02-22T00:43:51.902Z,23.07
2018-02-22T00:48:53.326Z,22.57
2018-02-22T00:53:55.415Z,26.27
2018-02-22T00:58:56.755Z,22.87
2018-02-22T01:03:58.138Z,22.23
2018-02-22T01:08:59.551Z,23.87
2018-02-22T01:14:00.915Z,26.13
2018-02-22T01:19:02.424Z,25.40
2018-02-22T01:24:03.760Z,23.47
2018-02-22T01:29:05.069Z,19.20
2018-02-22T01:34:06.684Z,23.07
2018-02-22T01:39:08.037Z,21.67
2018-02-22T01:44:09.378Z,25.83
2018-02-22T01:49:10.856Z,24.10
2018-02-22T01:54:12.213Z,22.60
2018-02-22T01:59:13.519Z,29.50
2018-02-22T02:04:15.624Z,23.03
2018-02-22T02:09:17.724Z,23.13
2018-02-22T02:14:19.062Z,26.43
2018-02-22T02:19:20.423Z,27.87
2018-02-22T02:24:21.768Z,22.17
2018-02-22T02:29:23.124Z,29.03
2018-02-22T02:34:24.460Z,24.43
2018-02-22T02:39:25.793Z,27.87
2018-02-22T02:44:27.115Z,27.40
2018-02-22T02:49:28.490Z,26.70
2018-02-22T02:54:29.831Z,24.97
2018-02-22T02:59:31.178Z,28.30
2018-02-22T03:04:32.535Z,33.33
2018-02-22T03:09:33.912Z,27.43
2018-02-22T03:14:35.986Z,31.30
2018-02-22T03:19:37.372Z,28.90
2018-02-22T03:24:38.815Z,27.40
2018-02-22T03:29:40.899Z,28.23
2018-02-22T03:34:42.295Z,29.80
2018-02-22T03:39:44.393Z,30.17
2018-02-22T03:44:45.754Z,36.30
2018-02-22T03:49:47.094Z,27.83
2018-02-22T03:54:49.251Z,29.07
2018-02-22T03:59:50.624Z,27.63
2018-02-22T04:04:51.975Z,35.60
2018-02-22T04:09:54.155Z,30.83
2018-02-22T04:14:55.506Z,29.90
2018-02-22T04:19:56.923Z,38.93
2018-02-22T04:24:58.258Z,33.57
2018-02-22T04:30:00.359Z,30.40
2018-02-22T04:35:02.461Z,31.77
2018-02-22T04:40:04.569Z,28.90
2018-02-22T04:45:06.020Z,34.43
2018-02-22T04:50:07.433Z,39.13
2018-02-22T04:55:08.782Z,34.20
2018-02-22T05:00:10.177Z,39.70
2018-02-22T05:05:11.507Z,33.53
2018-02-22T05:10:12.847Z,41.87
2018-02-22T05:15:14.295Z,42.83
2018-02-22T05:20:15.685Z,29.27
2018-02-22T05:25:17.103Z,34.30
2018-02-22T05:30:18.429Z,37.30
2018-02-22T05:35:20.719Z,36.47
2018-02-22T05:40:22.070Z,35.57
2018-02-22T05:45:23.410Z,32.37
2018-02-22T05:50:24.769Z,34.00
2018-02-22T05:55:26.932Z,49.57
2018-02-22T06:00:28.280Z,37.77
2018-02-22T06:05:29.614Z,34.33
2018-02-22T06:10:30.984Z,34.43
2018-02-22T06:15:32.352Z,45.57
2018-02-22T06:20:33.684Z,34.80
2018-02-22T06:25:35.040Z,36.67
2018-02-22T06:30:36.402Z,37.10
2018-02-22T06:35:38.561Z,39.70
2018-02-22T06:40:40.007Z,45.07
2018-02-22T06:45:42.332Z,30.83
2018-02-22T06:50:44.408Z,42.87
2018-02-22T06:55:45.726Z,33.13
2018-02-22T07:00:47.808Z,36.07
2018-02-22T07:05:49.177Z,38.43
2018-02-22T07:10:50.519Z,34.23
2018-02-22T07:15:51.874Z,35.90
2018-02-22T07:20:53.278Z,34.00
2018-02-22T07:25:55.462Z,33.20
2018-02-22T07:30:56.792Z,39.03
2018-02-22T07:35:58.872Z,31.90
2018-02-22T07:41:00.940Z,35.13
2018-02-22T07:46:02.319Z,32.30
2018-02-22T07:51:03.663Z,35.23
2018-02-22T07:56:05.022Z,41.27
2018-02-22T08:01:06.424Z,34.93
2018-02-22T08:06:07.853Z,39.33
2018-02-22T08:11:09.972Z,50.07
2018-02-22T08:16:11.362Z,58.47
2018-02-22T08:21:12.728Z,64.70
2018-02-22T08:26:14.083Z,50.67
2018-02-22T08:31:15.443Z,56.67
2018-02-22T08:36:16.844Z,57.30
2018-02-22T08:41:18.188Z,70.97
2018-02-22T08:46:19.540Z,67.20
2018-02-22T08:51:20.871Z,73.30
2018-02-22T08:56:22.972Z,68.90
2018-02-22T09:01:25.070Z,65.97
2018-02-22T09:06:26.458Z,74.27
2018-02-22T09:11:27.805Z,72.63
2018-02-22T09:16:29.183Z,74.67
2018-02-22T09:21:30.562Z,68.87
2018-02-22T09:26:31.926Z,71.63
2018-02-22T09:31:33.239Z,54.13
2018-02-22T09:36:34.602Z,43.80
2018-02-22T09:41:35.971Z,49.90
2018-02-22T09:46:37.332Z,52.73
2018-02-22T09:51:38.683Z,42.40
2018-02-22T09:56:40.103Z,44.03
2018-02-22T10:01:41.483Z,45.47
2018-02-22T10:06:42.826Z,43.77
2018-02-22T10:11:50.300Z,38.67
2018-02-22T10:16:52.366Z,38.93
2018-02-22T10:21:53.800Z,54.30
2018-02-22T10:26:55.167Z,54.30
2018-02-22T10:31:56.504Z,50.37
2018-02-22T10:36:57.855Z,47.43
2018-02-22T10:41:59.992Z,54.73
2018-02-22T10:47:01.378Z,50.40
2018-02-22T10:52:02.779Z,44.93
2018-02-22T10:57:04.100Z,45.33
2018-02-22T11:02:11.411Z,43.53
2018-02-22T11:07:12.803Z,49.93
2018-02-22T11:12:14.152Z,42.73
2018-02-22T11:17:16.346Z,46.73
2018-02-22T11:22:17.691Z,32.40
2018-02-22T11:27:19.028Z,35.57
2018-02-22T11:32:20.421Z,27.70
2018-02-22T11:37:22.583Z,25.40
2018-02-22T11:42:23.911Z,23.30
2018-02-22T11:47:25.252Z,23.13
2018-02-22T11:52:26.615Z,24.93
2018-02-22T11:57:28.729Z,25.47
2018-02-22T12:02:30.864Z,23.00
2018-02-22T12:07:32.182Z,26.63
2018-02-22T12:12:33.532Z,27.80
2018-02-22T12:17:34.868Z,26.37
2018-02-22T12:22:36.260Z,22.37
2018-02-22T12:27:37.636Z,23.77
2018-02-22T12:32:39.052Z,31.53
2018-02-22T12:37:40.454Z,27.53
2018-02-22T12:42:41.874Z,24.87
2018-02-22T12:47:43.240Z,26.20
2018-02-22T12:52:45.375Z,21.33
2018-02-22T12:57:46.742Z,20.07
2018-02-22T13:02:48.855Z,24.00
2018-02-22T13:07:50.227Z,21.37
2018-02-22T13:12:51.558Z,18.50
2018-02-22T13:17:52.938Z,18.10
2018-02-22T13:22:54.324Z,17.23
2018-02-22T13:27:55.712Z,17.67
2018-02-22T13:33:15.411Z,16.57
2018-02-22T13:38:35.171Z,13.00
2018-02-22T13:43:36.572Z,13.00
2018-02-22T13:54:26.381Z,10.83
2018-02-22T13:59:27.783Z,12.07
2018-02-22T14:04:29.125Z,10.77
2018-02-22T14:09:30.451Z,12.90
2018-02-22T14:14:31.830Z,12.60
2018-02-22T14:19:33.157Z,13.27
2018-02-22T14:24:34.526Z,12.70
2018-02-22T14:29:35.897Z,8.17
2018-02-22T14:34:37.324Z,7.60
2018-02-22T14:39:38.723Z,7.63
2018-02-22T14:44:40.174Z,6.07
2018-02-22T14:49:41.522Z,9.63
2018-02-22T14:54:43.635Z,9.20
2018-02-22T14:59:45.012Z,8.07
2018-02-22T15:04:47.124Z,6.47
2018-02-22T15:09:49.307Z,7.07
2018-02-22T15:14:50.626Z,4.57
2018-02-22T15:19:52.033Z,7.90
2018-02-22T15:24:53.408Z,4.40
2018-02-22T15:29:54.780Z,5.30
2018-02-22T15:34:56.879Z,5.00
2018-02-22T15:39:58.254Z,7.53
2018-02-22T15:44:59.658Z,4.67
2018-02-22T15:50:01.015Z,4.90
2018-02-22T15:55:02.438Z,4.40
2018-02-22T16:00:03.857Z,6.33
2018-02-22T16:10:39.862Z,5.27
2018-02-22T16:15:41.312Z,6.90
2018-02-22T16:20:42.733Z,11.27
2018-02-22T16:25:44.115Z,4.20
2018-02-22T16:30:45.530Z,6.37
2018-02-22T16:35:46.920Z,4.70
2018-02-22T16:40:48.285Z,4.73
2018-02-22T16:45:49.696Z,5.13
2018-02-22T16:50:51.073Z,5.73
2018-02-22T16:55:52.435Z,6.60
2018-02-22T17:00:55.376Z,7.00
2018-02-22T17:05:56.755Z,7.03
2018-02-22T17:10:58.854Z,10.53
2018-02-22T17:16:00.945Z,5.90
2018-02-22T17:21:02.309Z,62.00
2018-02-22T17:26:09.740Z,9.17
2018-02-22T17:31:17.160Z,8.13
2018-02-22T17:36:24.485Z,13.33
2018-02-22T17:41:32.134Z,27.30
2018-02-22T17:46:33.495Z,20.87
2018-02-22T17:51:34.980Z,20.27
2018-02-22T17:56:37.136Z,24.90
2018-02-22T18:01:38.497Z,24.10
2018-02-22T18:06:39.838Z,16.57
2018-02-22T18:11:41.213Z,75.97
2018-02-22T18:16:42.587Z,23.37
2018-02-22T18:21:44.013Z,21.27
2018-02-22T18:26:45.419Z,19.00
2018-02-22T18:31:47.656Z,42.20
2018-02-22T18:36:49.036Z,20.40
2018-02-22T18:41:53.187Z,25.77
2018-02-22T18:46:54.668Z,30.77
2018-02-22T18:51:56.061Z,28.47
2018-02-22T18:56:57.455Z,53.67
2018-02-22T19:01:59.574Z,22.43
2018-02-22T19:07:00.975Z,77.50
2018-02-22T19:12:02.401Z,49.77
2018-02-22T19:17:03.737Z,30.00
2018-02-22T19:22:05.112Z,54.53
2018-02-22T19:27:07.216Z,24.70
2018-02-22T19:32:08.635Z,35.90
2018-02-22T19:37:10.661Z,39.17
2018-02-22T19:42:12.106Z,44.80
2018-02-22T19:47:13.499Z,56.20
2018-02-22T19:52:14.929Z,22.67
2018-02-22T19:57:17.193Z,18.63
2018-02-22T20:02:18.568Z,73.77
2018-02-22T20:07:19.968Z,26.20
2018-02-22T20:12:21.407Z,64.27
2018-02-22T20:17:23.016Z,21.73
2018-02-22T20:22:25.101Z,23.47
2018-02-22T20:27:26.464Z,23.47
2018-02-22T20:32:27.814Z,32.20
2018-02-22T20:37:29.952Z,28.03
2018-02-22T20:42:31.484Z,27.37
2018-02-22T20:47:32.926Z,25.43
2018-02-22T20:52:41.153Z,22.70
2018-02-22T20:57:42.621Z,27.57
2018-02-22T21:02:44.056Z,26.27
2018-02-22T21:07:45.424Z,27.83
2018-02-22T21:12:46.736Z,29.63
2018-02-22T21:17:48.138Z,29.30
2018-02-22T21:22:49.651Z,30.53
2018-02-22T21:27:51.032Z,27.60
2018-02-22T21:32:52.372Z,29.50
2018-02-22T21:37:53.694Z,29.47
2018-02-22T21:42:55.040Z,32.03
2018-02-22T21:47:56.466Z,30.07
2018-02-22T21:52:57.840Z,27.50
2018-02-22T21:57:59.184Z,30.83
2018-02-22T22:03:01.280Z,36.90
2018-02-22T22:08:02.660Z,32.20
2018-02-22T22:13:04.608Z,31.70
2018-02-22T22:18:06.002Z,33.73
2018-02-22T22:23:07.399Z,32.47
2018-02-22T22:28:08.799Z,29.10
2018-02-22T22:33:10.185Z,31.53
2018-02-22T22:38:11.568Z,35.20
2018-02-22T22:43:13.103Z,30.27
2018-02-22T22:48:14.430Z,35.43
2018-02-22T22:53:16.665Z,32.40
2018-02-22T22:58:18.084Z,34.33
2018-02-22T23:03:19.414Z,31.80
2018-02-22T23:08:21.534Z,33.53
2018-02-22T23:13:23.588Z,34.63
2018-02-22T23:18:25.023Z,33.67
2018-02-22T23:23:27.131Z,33.27
2018-02-22T23:28:29.187Z,34.20
2018-02-22T23:33:30.657Z,36.03
2018-02-22T23:38:32.048Z,36.97
2018-02-22T23:43:33.514Z,33.20
2018-02-22T23:48:34.910Z,34.47
2018-02-22T23:53:36.988Z,42.93
2018-02-22T23:58:38.360Z,35.20
